Time;durP1;ratioP1;P1;durP2;ratioP2;P2;SDS_P1;SDS_P2;PMS_P1;PMS_P2;Temp;Humidity;BMP_temperature;BMP_pressure;BME280_temperature;BME280_humidity;BME280_pressure;Samples;Min_cycle;Max_cycle;Signal;HPM_P1;HPM_P2
2021/10/19 00:00:37;;;;;;;28.07;15.07;;;9.30;99.90;;;;;;4166898;28;21003;-85
2021/10/19 00:02:39;;;;;;;29.13;16.30;;;9.30;99.90;;;;;;4154277;28;20489;-85
2021/10/19 00:04:40;;;;;;;31.70;16.83;;;9.30;99.90;;;;;;4150598;28;20443;-85
2021/10/19 00:06:42;;;;;;;29.80;15.97;;;9.30;99.90;;;;;;4161575;28;20497;-86
2021/10/19 00:08:44;;;;;;;27.47;15.00;;;9.30;99.90;;;;;;4167351;28;20828;-84
2021/10/19 00:10:46;;;;;;;28.70;15.53;;;9.60;99.90;;;;;;4167935;28;20834;-84
2021/10/19 00:12:48;;;;;;;27.93;15.17;;;9.30;99.90;;;;;;4166598;28;20516;-84
2021/10/19 00:14:50;;;;;;;28.50;15.63;;;9.30;99.90;;;;;;4167870;28;20508;-84
2021/10/19 00:16:53;;;;;;;28.53;15.30;;;9.20;99.90;;;;;;4157869;28;20482;-84
2021/10/19 00:18:55;;;;;;;26.47;14.60;;;9.20;99.90;;;;;;4153527;28;20955;-85
2021/10/19 00:20:57;;;;;;;26.10;14.03;;;9.20;99.90;;;;;;4152429;28;20455;-84
2021/10/19 00:22:58;;;;;;;27.10;15.37;;;9.20;99.90;;;;;;4167553;28;20477;-86
2021/10/19 00:25:04;;;;;;;26.47;14.53;;;9.40;99.90;;;;;;4168290;28;20458;-84
2021/10/19 00:27:06;;;;;;;26.50;14.57;;;9.50;99.90;;;;;;4169294;28;20501;-84
2021/10/19 00:29:07;;;;;;;25.60;14.53;;;9.20;99.90;;;;;;4156233;28;20451;-84
2021/10/19 00:31:09;;;;;;;24.73;14.57;;;9.20;99.90;;;;;;4161945;28;20469;-85
2021/10/19 00:33:12;;;;;;;27.70;15.27;;;9.20;99.90;;;;;;4166364;28;20454;-85
2021/10/19 00:35:14;;;;;;;27.87;15.43;;;9.30;99.90;;;;;;4168997;28;20954;-84
2021/10/19 00:37:16;;;;;;;26.30;14.13;;;9.40;99.90;;;;;;4168764;28;20481;-85
2021/10/19 00:39:18;;;;;;;25.20;14.53;;;9.40;99.90;;;;;;4167645;28;20461;-85
2021/10/19 00:41:22;;;;;;;27.20;14.87;;;9.20;99.90;;;;;;4167828;28;20788;-87
2021/10/19 00:43:26;;;;;;;25.80;14.13;;;9.20;99.90;;;;;;4151285;28;20513;-85
2021/10/19 00:45:28;;;;;;;29.43;16.03;;;9.20;99.90;;;;;;4150830;28;20557;-84
2021/10/19 00:47:30;;;;;;;31.93;15.97;;;9.20;99.90;;;;;;4151491;28;20510;-84
2021/10/19 00:49:33;;;;;;;27.20;15.33;;;9.20;99.90;;;;;;4152149;28;20974;-85
2021/10/19 00:51:36;;;;;;;27.80;15.27;;;9.20;99.90;;;;;;4152062;28;20557;-84
2021/10/19 00:53:38;;;;;;;29.87;15.17;;;9.10;99.90;;;;;;4151539;28;20458;-86
2021/10/19 00:55:40;;;;;;;28.67;15.30;;;9.20;99.90;;;;;;4152766;28;20443;-85
2021/10/19 00:57:42;;;;;;;29.10;14.30;;;9.40;99.90;;;;;;4151584;28;20473;-85
2021/10/19 00:59:46;;;;;;;26.80;15.13;;;9.30;99.90;;;;;;4152296;28;20530;-84
2021/10/19 01:01:48;;;;;;;27.73;14.20;;;9.50;99.90;;;;;;4155623;28;20621;-84
2021/10/19 01:03:50;;;;;;;30.70;14.80;;;9.20;99.90;;;;;;4152124;28;20485;-85
2021/10/19 01:05:53;;;;;;;28.43;15.03;;;9.20;99.90;;;;;;4152305;28;20470;-86
2021/10/19 01:07:55;;;;;;;28.47;13.93;;;9.20;99.90;;;;;;4162058;28;20479;-84
2021/10/19 01:09:57;;;;;;;26.27;14.37;;;9.30;99.90;;;;;;4168747;28;20448;-84
2021/10/19 01:11:59;;;;;;;26.93;14.20;;;9.40;99.90;;;;;;4168691;28;20457;-84
2021/10/19 01:14:01;;;;;;;27.07;14.60;;;9.20;99.90;;;;;;4169192;28;20524;-85
2021/10/19 01:16:04;;;;;;;25.73;14.33;;;9.20;99.90;;;;;;4168769;28;20496;-84
2021/10/19 01:18:12;;;;;;;26.13;14.73;;;9.20;99.90;;;;;;4171094;28;20861;-86
2021/10/19 01:20:24;;;;;;;26.33;14.50;;;9.20;99.90;;;;;;4169916;28;20448;-85
2021/10/19 01:22:26;;;;;;;26.90;14.33;;;9.50;99.90;;;;;;4169338;28;20470;-85
2021/10/19 01:24:27;;;;;;;27.40;14.27;;;9.20;99.90;;;;;;4169843;28;20446;-84
2021/10/19 01:26:29;;;;;;;27.43;13.90;;;9.50;99.90;;;;;;4153700;28;20486;-85
2021/10/19 01:28:32;;;;;;;28.30;15.30;;;9.20;99.90;;;;;;4153383;28;20451;-84
2021/10/19 01:30:40;;;;;;;27.40;14.07;;;9.20;99.90;;;;;;4165173;28;20464;-84
2021/10/19 01:32:42;;;;;;;25.03;14.43;;;9.20;99.90;;;;;;4168665;28;20470;-84
2021/10/19 01:34:44;;;;;;;30.87;14.97;;;9.20;99.90;;;;;;4162396;28;20533;-84
2021/10/19 01:36:48;;;;;;;28.30;15.83;;;9.20;99.90;;;;;;4168324;28;20469;-84
2021/10/19 01:38:49;;;;;;;29.80;15.57;;;9.20;99.90;;;;;;4163912;28;20477;-84
2021/10/19 01:40:52;;;;;;;27.93;14.67;;;9.30;99.90;;;;;;4168325;28;20468;-84
2021/10/19 01:42:54;;;;;;;27.73;14.30;;;9.20;99.90;;;;;;4156440;28;20839;-85
2021/10/19 01:44:55;;;;;;;23.43;13.07;;;9.20;99.90;;;;;;4150833;28;20207;-85
2021/10/19 01:46:57;;;;;;;26.23;14.00;;;9.20;99.90;;;;;;4176152;22;20289;-79
2021/10/19 01:48:59;;;;;;;23.93;14.43;;;9.30;99.90;;;;;;4152798;28;20485;-79
2021/10/19 01:51:01;;;;;;;24.03;13.63;;;9.20;99.90;;;;;;4147255;28;20488;-79
2021/10/19 01:53:06;;;;;;;24.83;13.80;;;9.30;99.90;;;;;;4150785;28;20467;-80
2021/10/19 01:55:09;;;;;;;26.20;14.33;;;9.30;99.90;;;;;;4150864;28;20455;-80
2021/10/19 01:57:11;;;;;;;27.47;14.07;;;9.30;99.90;;;;;;4150584;28;20469;-79
2021/10/19 01:59:12;;;;;;;24.37;13.47;;;9.30;99.90;;;;;;4147608;28;20529;-79
2021/10/19 02:01:14;;;;;;;26.23;15.23;;;9.30;99.90;;;;;;4133945;28;20467;-80
2021/10/19 02:03:16;;;;;;;26.87;14.40;;;9.30;99.90;;;;;;4150266;28;20494;-79
2021/10/19 02:05:18;;;;;;;24.47;14.07;;;9.30;99.90;;;;;;4150617;28;20474;-79
2021/10/19 02:07:21;;;;;;;25.43;13.63;;;9.30;99.90;;;;;;4149266;28;20498;-79
2021/10/19 02:09:24;;;;;;;27.63;13.73;;;9.30;99.90;;;;;;4134081;28;20531;-79
2021/10/19 02:11:25;;;;;;;24.53;14.03;;;9.30;99.90;;;;;;4134218;28;20455;-79
2021/10/19 02:13:27;;;;;;;27.70;13.63;;;9.30;99.90;;;;;;4138007;28;20479;-79
2021/10/19 02:15:30;;;;;;;28.47;13.63;;;9.30;99.90;;;;;;4137469;28;20458;-79
2021/10/19 02:17:31;;;;;;;24.77;13.33;;;9.30;99.90;;;;;;4149760;28;20528;-79
2021/10/19 02:19:33;;;;;;;24.67;13.27;;;9.30;99.90;;;;;;4143936;28;20957;-79
2021/10/19 02:21:35;;;;;;;27.37;14.07;;;9.40;99.90;;;;;;4133984;28;20546;-79
2021/10/19 02:23:36;;;;;;;27.20;14.50;;;9.30;99.90;;;;;;4133533;28;20464;-79
2021/10/19 02:25:39;;;;;;;27.10;13.87;;;9.30;99.90;;;;;;4134051;28;20513;-79
2021/10/19 02:27:41;;;;;;;23.33;12.83;;;9.30;99.90;;;;;;4134308;28;20550;-79
2021/10/19 02:29:43;;;;;;;26.07;13.73;;;9.30;99.90;;;;;;4134933;28;20471;-79
2021/10/19 02:31:46;;;;;;;24.53;13.10;;;9.30;99.90;;;;;;4149729;28;20517;-79
2021/10/19 02:33:47;;;;;;;25.33;13.63;;;9.30;99.90;;;;;;4133998;28;20459;-79
2021/10/19 02:35:49;;;;;;;22.17;12.97;;;9.30;99.90;;;;;;4133377;28;20827;-79
2021/10/19 02:37:53;;;;;;;27.00;14.30;;;9.30;99.90;;;;;;4133802;28;20483;-79
2021/10/19 02:39:55;;;;;;;23.67;13.17;;;9.30;99.90;;;;;;4144698;28;20481;-79
2021/10/19 02:41:58;;;;;;;24.77;13.77;;;9.30;99.90;;;;;;4155413;28;20520;-80
2021/10/19 02:44:00;;;;;;;27.73;15.20;;;9.20;99.90;;;;;;4151938;28;20952;-79
2021/10/19 02:46:01;;;;;;;26.50;13.83;;;9.20;99.90;;;;;;4147671;28;20462;-79
2021/10/19 02:48:03;;;;;;;25.37;13.23;;;9.20;99.90;;;;;;4148136;28;20494;-79
2021/10/19 02:50:06;;;;;;;27.17;14.57;;;9.20;99.90;;;;;;4150150;28;21010;-80
2021/10/19 02:52:08;;;;;;;23.53;12.67;;;9.20;99.90;;;;;;4150066;28;20525;-79
2021/10/19 02:54:10;;;;;;;28.73;14.37;;;9.20;99.90;;;;;;4150038;28;20500;-79
2021/10/19 02:56:12;;;;;;;24.40;13.13;;;9.20;99.90;;;;;;4148826;28;20990;-79
2021/10/19 02:58:15;;;;;;;23.83;13.33;;;9.20;99.90;;;;;;4133811;28;20459;-80
2021/10/19 03:00:18;;;;;;;28.17;13.93;;;9.20;99.90;;;;;;4133170;28;20521;-80
2021/10/19 03:02:19;;;;;;;26.03;13.20;;;9.30;99.90;;;;;;4132112;28;20953;-79
2021/10/19 03:04:21;;;;;;;25.87;14.03;;;9.30;99.90;;;;;;4146369;28;20531;-80
2021/10/19 03:06:23;;;;;;;25.70;14.13;;;9.30;99.90;;;;;;4149212;28;20955;-79
2021/10/19 03:08:25;;;;;;;24.87;12.67;;;9.30;99.90;;;;;;4157442;28;20496;-80
2021/10/19 03:10:26;;;;;;;26.60;14.27;;;9.30;99.90;;;;;;4144386;28;20460;-79
2021/10/19 03:12:28;;;;;;;26.70;13.20;;;9.30;99.90;;;;;;4148088;28;20469;-79
2021/10/19 03:14:31;;;;;;;22.70;12.73;;;9.30;99.90;;;;;;4142682;28;20483;-79
2021/10/19 03:16:33;;;;;;;24.47;13.63;;;9.30;99.90;;;;;;4154481;28;20479;-80
2021/10/19 03:18:34;;;;;;;25.17;12.40;;;9.30;99.90;;;;;;4153392;28;20947;-79
2021/10/19 03:20:36;;;;;;;22.77;12.67;;;9.30;99.90;;;;;;4152047;28;20509;-80
2021/10/19 03:22:38;;;;;;;24.00;12.50;;;9.30;99.90;;;;;;4159593;28;21005;-79
2021/10/19 03:24:40;;;;;;;27.77;13.00;;;9.30;99.90;;;;;;4146521;28;20898;-79
2021/10/19 03:26:41;;;;;;;24.47;13.10;;;9.40;99.90;;;;;;4136705;28;20232;-79
2021/10/19 03:28:44;;;;;;;23.23;12.50;;;9.30;99.90;;;;;;4148115;28;20477;-79
2021/10/19 03:30:47;;;;;;;23.13;12.77;;;9.40;99.90;;;;;;4151651;28;20513;-79
2021/10/19 03:32:48;;;;;;;22.53;12.23;;;9.40;99.90;;;;;;4145042;28;20685;-79
2021/10/19 03:34:50;;;;;;;24.57;12.40;;;9.40;99.90;;;;;;4133452;28;21019;-79
2021/10/19 03:36:52;;;;;;;21.50;12.30;;;9.40;99.90;;;;;;4140364;28;20548;-79
2021/10/19 03:38:54;;;;;;;27.70;13.13;;;9.40;99.90;;;;;;4147158;28;20456;-79
2021/10/19 03:40:55;;;;;;;24.10;13.03;;;9.40;99.90;;;;;;4138029;28;20450;-78
2021/10/19 03:42:57;;;;;;;24.17;12.60;;;9.40;99.90;;;;;;4146061;28;20482;-79
2021/10/19 03:44:59;;;;;;;21.27;11.47;;;9.40;99.90;;;;;;4149625;28;20462;-79
2021/10/19 03:47:02;;;;;;;23.33;12.13;;;9.40;99.90;;;;;;4148473;28;20490;-79
2021/10/19 03:49:04;;;;;;;22.73;12.47;;;9.40;99.90;;;;;;4144730;28;20251;-79
2021/10/19 03:51:05;;;;;;;23.83;12.90;;;9.40;99.90;;;;;;4143889;28;20474;-78
2021/10/19 03:53:09;;;;;;;21.43;12.13;;;9.40;99.90;;;;;;4142916;28;20207;-78
2021/10/19 03:55:11;;;;;;;23.10;13.10;;;9.40;99.90;;;;;;4148918;28;20451;-78
2021/10/19 03:57:13;;;;;;;21.00;11.57;;;9.40;99.90;;;;;;4148848;28;20475;-78
2021/10/19 03:59:15;;;;;;;21.47;12.17;;;9.40;99.90;;;;;;4143836;28;20883;-79
2021/10/19 04:01:16;;;;;;;21.13;12.33;;;9.40;99.90;;;;;;4141054;28;20877;-78
2021/10/19 04:03:19;;;;;;;24.30;13.17;;;9.40;99.90;;;;;;4148327;28;20520;-78
2021/10/19 04:05:21;;;;;;;25.13;13.33;;;9.50;99.90;;;;;;4149624;28;20458;-78
2021/10/19 04:07:23;;;;;;;22.87;12.80;;;9.50;99.90;;;;;;4145698;28;20232;-78
2021/10/19 04:09:24;;;;;;;26.67;13.87;;;9.50;99.90;;;;;;4132677;28;20534;-79
2021/10/19 04:11:26;;;;;;;25.50;13.50;;;9.50;99.90;;;;;;4132883;28;20216;-79
2021/10/19 04:13:28;;;;;;;24.20;13.27;;;9.50;99.90;;;;;;4151727;28;20582;-78
2021/10/19 04:15:30;;;;;;;25.63;14.40;;;9.50;99.90;;;;;;4141969;28;20956;-78
2021/10/19 04:17:31;;;;;;;23.60;13.67;;;9.50;99.90;;;;;;4136177;28;20544;-79
2021/10/19 04:19:34;;;;;;;24.20;12.87;;;9.50;99.90;;;;;;4135577;28;20266;-79
2021/10/19 04:21:36;;;;;;;25.57;13.53;;;9.50;99.90;;;;;;4143839;28;20779;-78
2021/10/19 04:23:38;;;;;;;23.33;13.57;;;9.50;99.90;;;;;;4146261;28;20854;-78
2021/10/19 04:25:39;;;;;;;28.97;13.70;;;9.50;99.90;;;;;;4140849;28;21002;-78
2021/10/19 04:27:41;;;;;;;22.57;12.70;;;9.50;99.90;;;;;;4140869;28;20501;-79
2021/10/19 04:29:43;;;;;;;26.03;14.10;;;9.50;99.90;;;;;;4145386;28;20505;-79
2021/10/19 04:31:44;;;;;;;24.53;13.07;;;9.50;99.90;;;;;;4144464;28;20215;-79
2021/10/19 04:33:48;;;;;;;24.37;13.27;;;9.50;99.90;;;;;;4143438;28;20657;-78
2021/10/19 04:35:51;;;;;;;25.87;14.10;;;9.50;99.90;;;;;;4149173;28;20478;-78
2021/10/19 04:37:53;;;;;;;24.90;13.03;;;9.50;99.90;;;;;;4146441;28;20272;-78
2021/10/19 04:39:55;;;;;;;25.20;13.97;;;9.50;99.90;;;;;;4148331;28;20209;-78
2021/10/19 04:41:57;;;;;;;24.53;13.43;;;9.50;99.90;;;;;;4147628;28;20230;-79
2021/10/19 04:43:58;;;;;;;24.53;12.67;;;9.50;99.90;;;;;;4146937;28;20227;-78
2021/10/19 04:46:00;;;;;;;25.27;14.00;;;9.50;99.90;;;;;;4148418;28;20963;-78
2021/10/19 04:48:02;;;;;;;26.63;14.00;;;9.50;99.90;;;;;;4148481;28;20506;-79
2021/10/19 04:50:05;;;;;;;27.03;13.90;;;9.60;99.90;;;;;;4133401;28;20460;-82
2021/10/19 04:52:08;;;;;;;25.90;13.70;;;9.50;99.90;;;;;;4126025;28;20476;-78
2021/10/19 04:54:10;;;;;;;25.67;13.50;;;9.60;99.90;;;;;;4131346;28;20468;-78
2021/10/19 04:56:12;;;;;;;24.20;13.23;;;9.60;99.90;;;;;;4132655;28;20472;-79
2021/10/19 04:58:13;;;;;;;25.97;13.70;;;9.60;99.90;;;;;;4132436;28;20522;-78
2021/10/19 05:00:16;;;;;;;24.73;13.23;;;9.60;99.90;;;;;;4128279;28;20456;-79
2021/10/19 05:02:18;;;;;;;24.57;14.13;;;9.60;99.90;;;;;;4129281;28;20521;-79
2021/10/19 05:04:19;;;;;;;24.40;13.23;;;9.40;99.90;;;;;;4131533;28;20523;-79
2021/10/19 05:06:21;;;;;;;27.33;14.27;;;9.60;99.90;;;;;;4124862;28;20464;-79
2021/10/19 05:08:24;;;;;;;29.30;15.00;;;9.60;99.90;;;;;;4134836;28;21032;-79
2021/10/19 05:10:26;;;;;;;27.60;15.37;;;9.60;99.90;;;;;;4133455;28;20456;-79
2021/10/19 05:12:27;;;;;;;26.90;14.30;;;9.70;99.90;;;;;;4130233;28;20557;-77
2021/10/19 05:14:29;;;;;;;26.13;14.17;;;9.60;99.90;;;;;;4127483;28;20213;-78
2021/10/19 05:16:31;;;;;;;23.97;13.73;;;9.70;99.90;;;;;;4125548;28;20209;-79
2021/10/19 05:18:33;;;;;;;27.77;14.37;;;9.70;99.90;;;;;;4127722;28;20216;-79
2021/10/19 05:20:34;;;;;;;28.47;15.40;;;9.70;99.90;;;;;;4127327;28;20212;-79
2021/10/19 05:22:36;;;;;;;27.17;14.57;;;9.70;99.90;;;;;;4129026;28;20453;-80
2021/10/19 05:24:39;;;;;;;25.47;14.20;;;9.70;99.90;;;;;;4130968;28;20459;-79
2021/10/19 05:26:41;;;;;;;25.03;13.83;;;9.70;99.90;;;;;;4125747;28;20279;-79
2021/10/19 05:28:42;;;;;;;27.33;14.33;;;9.70;99.90;;;;;;4129182;28;20224;-79
2021/10/19 05:30:44;;;;;;;30.57;15.37;;;9.70;99.90;;;;;;4129657;28;20267;-79
2021/10/19 05:32:46;;;;;;;29.20;15.50;;;9.70;99.90;;;;;;4129922;28;20247;-79
2021/10/19 05:34:47;;;;;;;29.87;15.17;;;9.70;99.90;;;;;;4132088;28;20208;-78
2021/10/19 05:36:49;;;;;;;31.87;15.53;;;9.70;99.90;;;;;;4126460;28;20228;-79
2021/10/19 05:38:51;;;;;;;29.47;15.73;;;9.70;99.90;;;;;;4131178;28;20219;-79
2021/10/19 05:40:54;;;;;;;27.57;15.13;;;9.70;99.90;;;;;;4128333;28;20545;-79
2021/10/19 05:42:55;;;;;;;28.73;15.20;;;9.70;99.90;;;;;;4129491;28;20623;-78
2021/10/19 05:44:57;;;;;;;29.90;15.70;;;9.80;99.90;;;;;;4131284;28;20555;-79
2021/10/19 05:46:59;;;;;;;28.90;15.37;;;9.80;99.90;;;;;;4123624;28;20542;-80
2021/10/19 05:49:00;;;;;;;28.37;15.43;;;9.80;99.90;;;;;;4126389;28;20259;-80
2021/10/19 05:51:02;;;;;;;28.37;15.00;;;9.80;99.90;;;;;;4124792;28;20965;-78
2021/10/19 05:53:04;;;;;;;29.57;15.40;;;9.80;99.90;;;;;;4116008;28;20480;-77
2021/10/19 05:55:06;;;;;;;31.30;16.10;;;9.80;99.90;;;;;;4120704;28;20460;-78
2021/10/19 05:57:09;;;;;;;27.47;14.43;;;9.80;99.90;;;;;;4118184;28;20694;-77
2021/10/19 05:59:11;;;;;;;29.13;14.33;;;9.80;99.90;;;;;;4123714;28;20468;-77
2021/10/19 06:01:12;;;;;;;27.63;14.90;;;9.80;99.90;;;;;;4122622;28;21039;-77
2021/10/19 06:03:14;;;;;;;26.97;14.47;;;9.90;99.90;;;;;;4123458;28;20588;-78
2021/10/19 06:05:16;;;;;;;24.10;14.33;;;9.90;99.90;;;;;;4125894;28;20456;-77
2021/10/19 06:07:18;;;;;;;29.73;15.00;;;9.90;99.90;;;;;;4123884;28;20294;-78
2021/10/19 06:09:19;;;;;;;28.00;15.60;;;9.90;99.90;;;;;;4124115;28;20218;-78
2021/10/19 06:11:21;;;;;;;28.00;15.40;;;9.90;99.90;;;;;;4124093;28;20776;-77
2021/10/19 06:13:25;;;;;;;27.17;14.90;;;9.90;99.90;;;;;;4126321;28;20216;-77
2021/10/19 06:15:26;;;;;;;28.70;15.27;;;10.00;99.90;;;;;;4119003;28;20310;-78
2021/10/19 06:17:28;;;;;;;28.20;14.73;;;10.00;99.90;;;;;;4124143;28;20319;-78
2021/10/19 06:19:30;;;;;;;29.57;15.07;;;10.00;99.90;;;;;;4126317;28;20220;-77
2021/10/19 06:21:31;;;;;;;27.17;14.90;;;10.00;99.90;;;;;;4121307;28;20214;-77
2021/10/19 06:23:33;;;;;;;23.70;13.60;;;10.00;99.90;;;;;;4123300;28;20213;-78
2021/10/19 06:25:35;;;;;;;23.83;13.53;;;10.00;99.90;;;;;;4124713;28;20862;-78
2021/10/19 06:27:37;;;;;;;27.37;13.87;;;10.00;99.90;;;;;;4126917;28;20699;-78
2021/10/19 06:29:40;;;;;;;24.97;14.10;;;10.10;99.90;;;;;;4117868;28;20242;-78
2021/10/19 06:31:42;;;;;;;29.30;15.13;;;10.10;99.90;;;;;;4126520;28;20220;-78
2021/10/19 06:33:43;;;;;;;28.50;15.07;;;10.10;99.90;;;;;;4127889;28;20311;-78
2021/10/19 06:35:45;;;;;;;24.90;13.93;;;10.10;99.90;;;;;;4128892;28;20220;-78
2021/10/19 06:37:47;;;;;;;26.30;14.17;;;10.10;99.90;;;;;;4124358;28;20299;-78
2021/10/19 06:39:49;;;;;;;28.50;14.13;;;10.20;99.90;;;;;;4117587;28;20210;-78
2021/10/19 06:41:50;;;;;;;28.13;14.10;;;10.20;99.90;;;;;;4112930;28;20214;-77
2021/10/19 06:43:52;;;;;;;24.93;14.13;;;10.20;99.90;;;;;;4128955;28;20748;-78
2021/10/19 06:45:55;;;;;;;24.53;13.13;;;10.20;99.90;;;;;;4129334;28;20216;-78
2021/10/19 06:47:57;;;;;;;25.30;13.00;;;10.20;99.90;;;;;;4128368;28;20260;-78
2021/10/19 06:49:59;;;;;;;25.83;14.13;;;10.40;99.90;;;;;;4126049;28;20244;-78
2021/10/19 06:52:00;;;;;;;24.13;13.27;;;10.30;99.90;;;;;;4121549;28;20273;-77
2021/10/19 06:54:02;;;;;;;26.50;13.47;;;10.40;99.90;;;;;;4125623;28;20223;-77
2021/10/19 06:56:04;;;;;;;24.07;13.83;;;10.40;99.90;;;;;;4141487;28;20216;-78
2021/10/19 06:58:06;;;;;;;29.53;14.77;;;10.40;99.90;;;;;;4130924;28;20244;-78
2021/10/19 07:00:08;;;;;;;22.93;12.70;;;10.50;99.90;;;;;;4125999;28;20217;-77
2021/10/19 07:02:11;;;;;;;29.03;14.37;;;10.50;99.90;;;;;;4125860;28;20284;-78
2021/10/19 07:04:13;;;;;;;22.20;12.37;;;10.50;99.90;;;;;;4128870;28;20673;-77
2021/10/19 07:06:15;;;;;;;24.67;12.97;;;10.50;99.90;;;;;;4127992;28;20216;-78
2021/10/19 07:08:17;;;;;;;24.77;13.07;;;10.60;99.90;;;;;;4123493;28;20722;-79
2021/10/19 07:10:20;;;;;;;22.90;13.03;;;10.60;99.90;;;;;;4124779;28;20236;-79
2021/10/19 07:12:22;;;;;;;28.07;13.97;;;10.60;99.90;;;;;;4128598;28;20211;-79
2021/10/19 07:14:23;;;;;;;22.13;12.27;;;10.60;99.90;;;;;;4129707;28;20267;-79
2021/10/19 07:16:25;;;;;;;26.77;12.53;;;10.60;99.90;;;;;;4126614;28;20211;-78
2021/10/19 07:18:28;;;;;;;24.23;13.30;;;10.60;99.90;;;;;;4129622;28;20680;-79
2021/10/19 07:20:30;;;;;;;26.80;13.30;;;10.70;99.90;;;;;;4129595;28;20272;-79
2021/10/19 07:22:32;;;;;;;22.67;12.20;;;10.80;99.90;;;;;;4130302;28;20210;-79
2021/10/19 07:24:33;;;;;;;25.30;12.97;;;10.70;99.90;;;;;;4128498;28;20217;-78
2021/10/19 07:26:35;;;;;;;21.30;11.90;;;10.80;99.90;;;;;;4132538;28;20237;-79
2021/10/19 07:28:37;;;;;;;24.53;13.00;;;10.80;99.90;;;;;;4130828;28;20654;-78
2021/10/19 07:30:39;;;;;;;22.90;12.17;;;10.90;99.90;;;;;;4131934;28;20213;-79
2021/10/19 07:32:41;;;;;;;20.23;11.57;;;11.10;99.90;;;;;;4131230;28;20217;-80
2021/10/19 07:34:44;;;;;;;23.47;12.73;;;10.90;99.90;;;;;;4128752;28;20220;-79
2021/10/19 07:36:45;;;;;;;22.23;12.23;;;11.00;99.90;;;;;;4130130;28;20641;-79
2021/10/19 07:38:48;;;;;;;23.57;11.60;;;11.00;99.90;;;;;;4128744;28;20219;-79
2021/10/19 07:40:50;;;;;;;22.30;11.23;;;11.00;99.90;;;;;;4136862;28;20216;-79
2021/10/19 07:42:53;;;;;;;20.90;11.90;;;11.10;99.90;;;;;;4127517;28;20646;-79
2021/10/19 07:44:54;;;;;;;22.20;11.63;;;11.10;99.90;;;;;;4131763;28;20264;-78
2021/10/19 07:46:56;;;;;;;20.77;11.77;;;11.10;99.90;;;;;;4148240;23;20246;-78
2021/10/19 07:48:58;;;;;;;20.27;11.53;;;11.10;99.90;;;;;;4152276;28;20245;-78
2021/10/19 07:51:01;;;;;;;20.37;11.70;;;11.20;99.90;;;;;;4158784;28;20689;-78
2021/10/19 07:53:03;;;;;;;22.63;11.80;;;11.30;99.90;;;;;;4160870;28;20217;-78
2021/10/19 07:55:05;;;;;;;20.90;11.57;;;11.30;99.90;;;;;;4160353;28;20218;-77
2021/10/19 07:57:07;;;;;;;24.13;10.90;;;11.30;99.90;;;;;;4157822;28;20283;-78
2021/10/19 07:59:09;;;;;;;22.17;11.00;;;11.40;99.90;;;;;;4142699;28;20213;-77
2021/10/19 08:01:11;;;;;;;22.50;11.80;;;11.40;99.90;;;;;;4139892;28;20257;-77
2021/10/19 08:03:12;;;;;;;20.33;11.17;;;11.50;99.90;;;;;;4144078;28;20673;-78
2021/10/19 08:05:15;;;;;;;19.33;11.57;;;11.50;99.90;;;;;;4142786;28;20705;-78
2021/10/19 08:07:19;;;;;;;21.47;11.27;;;11.50;99.90;;;;;;4142200;28;20317;-77
2021/10/19 08:09:21;;;;;;;23.93;12.50;;;11.50;99.90;;;;;;4143181;28;20241;-78
2021/10/19 08:11:23;;;;;;;18.20;10.70;;;11.60;99.90;;;;;;4143002;28;20750;-77
2021/10/19 08:13:24;;;;;;;18.67;11.13;;;11.60;99.90;;;;;;4141878;28;20579;-78
2021/10/19 08:15:26;;;;;;;19.70;11.10;;;11.70;99.90;;;;;;4141549;28;20210;-78
2021/10/19 08:17:28;;;;;;;21.67;11.83;;;11.70;99.90;;;;;;4138348;28;20243;-77
2021/10/19 08:19:30;;;;;;;20.60;11.60;;;11.80;99.90;;;;;;4144459;28;20277;-77
2021/10/19 08:21:32;;;;;;;21.47;11.37;;;11.80;99.90;;;;;;4139278;28;20219;-77
2021/10/19 08:23:35;;;;;;;18.37;10.67;;;11.80;99.90;;;;;;4151101;28;20213;-77
2021/10/19 08:25:38;;;;;;;20.00;11.50;;;11.90;99.90;;;;;;4159831;28;20796;-77
2021/10/19 08:27:42;;;;;;;20.17;11.73;;;11.90;99.90;;;;;;4156959;28;20996;-78
2021/10/19 08:29:44;;;;;;;19.17;11.20;;;12.00;99.90;;;;;;4131510;28;20243;-77
2021/10/19 08:31:45;;;;;;;21.53;11.20;;;12.00;99.90;;;;;;4143865;28;20678;-78
2021/10/19 08:33:50;;;;;;;19.00;11.00;;;12.10;99.90;;;;;;4143479;28;20324;-78
2021/10/19 08:35:51;;;;;;;18.87;11.80;;;12.10;99.90;;;;;;4140194;28;20215;-77
2021/10/19 08:37:54;;;;;;;20.63;11.43;;;12.20;99.90;;;;;;4143006;28;20237;-77
2021/10/19 08:39:57;;;;;;;21.03;11.30;;;12.20;99.90;;;;;;4140471;28;20218;-78
2021/10/19 08:41:59;;;;;;;19.43;11.23;;;12.20;99.90;;;;;;4137362;28;20219;-77
2021/10/19 08:44:01;;;;;;;20.73;11.53;;;12.30;99.90;;;;;;4139337;28;20223;-78
2021/10/19 08:46:03;;;;;;;21.43;11.63;;;12.40;99.90;;;;;;4142693;28;20224;-77
2021/10/19 08:48:07;;;;;;;19.10;11.47;;;12.40;99.90;;;;;;4142449;28;20239;-77
2021/10/19 08:50:10;;;;;;;21.77;11.50;;;12.50;99.90;;;;;;4142753;28;20256;-78
2021/10/19 08:52:12;;;;;;;20.10;11.10;;;12.60;99.90;;;;;;4140965;28;20617;-77
2021/10/19 08:54:14;;;;;;;17.53;10.47;;;12.60;99.90;;;;;;4144750;28;20272;-77
2021/10/19 08:56:17;;;;;;;19.37;11.90;;;12.60;99.90;;;;;;4140273;28;20261;-78
2021/10/19 08:58:19;;;;;;;18.53;11.27;;;12.70;99.90;;;;;;4135980;28;20408;-77
2021/10/19 09:00:26;;;;;;;20.20;11.70;;;12.80;99.90;;;;;;4136839;28;20205;-77
2021/10/19 09:02:39;;;;;;;17.73;11.00;;;12.80;99.90;;;;;;4140255;28;20278;-78
2021/10/19 09:04:42;;;;;;;19.70;11.67;;;12.90;99.90;;;;;;4141595;28;20211;-77
2021/10/19 09:06:45;;;;;;;20.13;11.43;;;12.90;99.90;;;;;;4141814;28;20695;-77
2021/10/19 09:08:50;;;;;;;18.27;10.73;;;13.00;99.90;;;;;;4139511;28;20301;-77
2021/10/19 09:10:51;;;;;;;22.73;12.53;;;13.00;99.90;;;;;;4143068;28;20208;-78
2021/10/19 09:12:56;;;;;;;20.93;11.70;;;13.10;99.90;;;;;;4142271;28;20207;-77
2021/10/19 09:15:05;;;;;;;18.83;10.80;;;13.10;99.90;;;;;;4143452;28;20216;-78
2021/10/19 09:17:09;;;;;;;18.83;10.83;;;13.20;99.90;;;;;;4139190;28;20576;-79
2021/10/19 09:19:11;;;;;;;20.20;11.20;;;13.20;99.90;;;;;;4138626;28;20628;-78
2021/10/19 09:21:13;;;;;;;19.37;10.87;;;13.30;99.90;;;;;;4143581;28;20309;-76
2021/10/19 09:23:18;;;;;;;21.50;11.07;;;13.30;99.90;;;;;;4143673;28;20230;-78
2021/10/19 09:25:25;;;;;;;19.23;11.57;;;13.40;99.90;;;;;;4158329;28;20680;-77
2021/10/19 09:27:26;;;;;;;19.17;10.73;;;13.40;99.90;;;;;;4127261;28;20639;-78
2021/10/19 09:29:31;;;;;;;16.53;10.70;;;13.40;99.90;;;;;;4138974;28;20493;-77
2021/10/19 09:31:37;;;;;;;18.57;10.73;;;13.50;99.90;;;;;;4148687;28;20219;-77
2021/10/19 09:33:39;;;;;;;15.93;9.83;;;13.50;99.90;;;;;;4158670;28;20642;-77
2021/10/19 09:35:42;;;;;;;20.67;11.40;;;13.50;99.90;;;;;;4135156;28;20212;-78
2021/10/19 09:37:55;;;;;;;18.60;10.90;;;13.60;99.90;;;;;;4141069;28;20239;-77
2021/10/19 09:39:59;;;;;;;18.07;10.07;;;13.60;99.90;;;;;;4137353;28;20215;-77
2021/10/19 09:42:02;;;;;;;16.90;9.70;;;13.70;99.90;;;;;;4136298;28;20274;-77
2021/10/19 09:44:10;;;;;;;16.73;10.03;;;13.70;99.90;;;;;;4140083;28;20263;-78
2021/10/19 09:46:13;;;;;;;17.87;10.27;;;13.80;99.90;;;;;;4141831;28;20273;-78
2021/10/19 09:48:17;;;;;;;16.80;9.77;;;13.90;99.90;;;;;;4141418;28;20235;-78
2021/10/19 09:50:21;;;;;;;14.63;8.90;;;13.90;99.90;;;;;;4139316;28;20716;-79
2021/10/19 09:52:24;;;;;;;16.50;9.03;;;14.00;99.90;;;;;;4134602;28;20748;-75
2021/10/19 09:54:29;;;;;;;14.57;9.00;;;14.00;99.90;;;;;;4143402;28;20223;-75
2021/10/19 09:56:31;;;;;;;15.60;9.27;;;14.10;99.90;;;;;;4143103;28;20673;-78
2021/10/19 09:58:35;;;;;;;15.20;9.10;;;14.10;99.90;;;;;;4140152;28;20240;-77
2021/10/19 10:00:37;;;;;;;16.40;9.30;;;14.10;99.90;;;;;;4138445;28;20204;-75
2021/10/19 10:02:40;;;;;;;15.33;8.47;;;14.30;99.90;;;;;;4139441;28;20317;-75
2021/10/19 10:04:42;;;;;;;15.00;8.90;;;14.40;99.90;;;;;;4137364;28;20796;-75
2021/10/19 10:06:45;;;;;;;15.30;8.80;;;14.50;99.90;;;;;;4133747;28;20217;-75
2021/10/19 10:08:48;;;;;;;12.63;8.13;;;14.60;99.90;;;;;;4140665;28;20221;-75
2021/10/19 10:10:53;;;;;;;14.27;7.90;;;14.70;99.90;;;;;;4143095;28;20232;-76
2021/10/19 10:13:04;;;;;;;14.97;8.80;;;14.80;99.90;;;;;;4139700;28;20608;-76
2021/10/19 10:15:07;;;;;;;11.83;7.60;;;14.90;99.90;;;;;;4139484;28;20220;-75
2021/10/19 10:17:10;;;;;;;12.80;7.23;;;15.00;99.90;;;;;;4138362;28;20238;-75
2021/10/19 10:19:15;;;;;;;11.70;7.20;;;15.10;99.90;;;;;;4145319;28;20303;-75
2021/10/19 10:21:18;;;;;;;13.67;7.50;;;15.20;99.90;;;;;;4146130;28;20222;-75
2021/10/19 10:23:22;;;;;;;11.90;7.40;;;15.30;99.90;;;;;;4139593;28;20219;-75
2021/10/19 10:25:25;;;;;;;11.10;7.00;;;15.40;99.90;;;;;;4145978;28;20290;-76